createdAt,value
2024-05-09T00:00:44.059Z,1.50
2024-05-09T00:05:59.406Z,1.50
2024-05-09T00:08:27.083Z,1.70
2024-05-09T00:10:54.909Z,1.60
2024-05-09T00:13:22.509Z,1.80
2024-05-09T00:15:49.921Z,1.90
2024-05-09T00:18:17.704Z,1.80
2024-05-09T00:20:45.565Z,1.70
2024-05-09T00:23:14.129Z,2.00
2024-05-09T00:25:45.165Z,1.50
2024-05-09T00:28:13.949Z,1.90
2024-05-09T00:30:41.563Z,1.60
2024-05-09T00:33:10.660Z,1.90
2024-05-09T00:35:39.607Z,1.80
2024-05-09T00:38:08.023Z,1.90
2024-05-09T00:40:40.901Z,1.60
2024-05-09T00:43:13.183Z,1.80
2024-05-09T00:45:42.975Z,1.60
2024-05-09T00:48:15.244Z,1.50
2024-05-09T00:50:46.923Z,1.30
2024-05-09T00:53:16.867Z,1.80
2024-05-09T00:55:45.499Z,1.80
2024-05-09T00:58:17.951Z,1.90
2024-05-09T01:00:46.403Z,1.70
2024-05-09T01:03:14.586Z,1.90
2024-05-09T01:05:44.329Z,1.70
2024-05-09T01:08:12.978Z,1.90
2024-05-09T01:10:44.812Z,2.00
2024-05-09T01:13:13.681Z,2.00
2024-05-09T01:15:41.736Z,2.00
2024-05-09T01:18:14.085Z,1.80
2024-05-09T01:20:44.332Z,2.10
2024-05-09T01:23:15.162Z,2.20
2024-05-09T01:25:45.608Z,2.00
2024-05-09T01:28:14.799Z,2.10
2024-05-09T01:30:42.428Z,2.10
2024-05-09T01:33:11.785Z,2.30
2024-05-09T01:35:40.625Z,2.30
2024-05-09T01:38:13.250Z,2.50
2024-05-09T01:40:42.659Z,2.30
2024-05-09T01:43:11.525Z,2.40
2024-05-09T01:45:41.462Z,2.20
2024-05-09T01:48:10.457Z,2.00
2024-05-09T01:50:41.737Z,1.90
2024-05-09T01:53:15.012Z,2.00
2024-05-09T01:55:43.990Z,2.50
2024-05-09T01:58:12.913Z,2.20
2024-05-09T02:00:42.661Z,2.30
2024-05-09T02:03:15.517Z,2.60
2024-05-09T02:05:47.449Z,2.30
2024-05-09T02:08:19.312Z,2.30
2024-05-09T02:10:49.245Z,2.10
2024-05-09T02:13:18.765Z,2.60
2024-05-09T02:15:46.525Z,2.00
2024-05-09T02:18:14.491Z,2.10
2024-05-09T02:20:43.031Z,2.40
2024-05-09T02:23:11.417Z,2.30
2024-05-09T02:25:39.935Z,2.10
2024-05-09T02:28:07.990Z,2.40
2024-05-09T02:30:40.110Z,2.20
2024-05-09T02:33:12.000Z,2.40
2024-05-09T02:35:42.807Z,2.40
2024-05-09T02:40:40.079Z,2.20
2024-05-09T02:43:10.575Z,2.10
2024-05-09T02:45:39.713Z,2.00
2024-05-09T02:48:10.646Z,2.00
2024-05-09T02:50:40.471Z,2.10
2024-05-09T02:55:41.709Z,1.90
2024-05-09T02:58:10.465Z,2.10
2024-05-09T03:00:41.253Z,2.00
2024-05-09T03:03:13.439Z,2.60
2024-05-09T03:05:44.765Z,2.70
2024-05-09T03:08:12.944Z,2.10
2024-05-09T03:10:40.786Z,2.10
2024-05-09T03:13:11.082Z,2.80
2024-05-09T03:15:39.306Z,2.40
2024-05-09T03:18:07.367Z,2.40
2024-05-09T03:20:36.355Z,2.90
2024-05-09T03:23:07.179Z,2.70
2024-05-09T03:25:35.006Z,2.20
2024-05-09T03:28:02.522Z,2.80
2024-05-09T03:30:38.770Z,2.60
2024-05-09T03:33:33.037Z,2.90
2024-05-09T03:36:02.431Z,2.70
2024-05-09T03:38:30.492Z,2.60
2024-05-09T03:40:58.465Z,2.30
2024-05-09T03:43:26.029Z,2.80
2024-05-09T03:45:53.468Z,2.50
2024-05-09T03:48:21.245Z,2.50
2024-05-09T03:50:50.392Z,2.60
2024-05-09T03:53:18.091Z,2.60
2024-05-09T03:55:47.922Z,3.00
2024-05-09T03:58:15.514Z,3.30
2024-05-09T04:00:43.117Z,2.70
2024-05-09T04:03:12.452Z,3.30
2024-05-09T04:05:45.797Z,3.00
2024-05-09T04:08:15.232Z,2.80
2024-05-09T04:10:43.438Z,3.00
2024-05-09T04:13:11.207Z,3.10
2024-05-09T04:15:39.531Z,2.70
2024-05-09T04:18:07.157Z,4.40
2024-05-09T04:20:39.104Z,2.90
2024-05-09T04:23:13.503Z,3.00
2024-05-09T04:25:43.300Z,2.90
2024-05-09T04:28:10.842Z,2.70
2024-05-09T04:30:40.898Z,2.80
2024-05-09T04:33:11.787Z,2.70
2024-05-09T04:35:44.800Z,2.00
2024-05-09T04:38:13.973Z,2.30
2024-05-09T04:40:42.254Z,2.40
2024-05-09T04:43:19.244Z,2.80
2024-05-09T04:45:46.980Z,1.90
2024-05-09T04:48:14.756Z,2.30
2024-05-09T04:50:42.619Z,2.10
2024-05-09T04:53:15.818Z,2.20
2024-05-09T04:55:43.436Z,2.30
2024-05-09T04:58:14.345Z,2.40
2024-05-09T05:00:43.471Z,2.50
2024-05-09T05:03:14.253Z,2.10
2024-05-09T05:05:45.810Z,2.90
2024-05-09T05:08:18.793Z,2.30
2024-05-09T05:10:48.258Z,2.50
2024-05-09T05:15:46.829Z,1.90
2024-05-09T05:18:15.314Z,2.40
2024-05-09T05:20:43.318Z,1.90
2024-05-09T05:23:16.175Z,2.00
2024-05-09T05:25:44.477Z,3.70
2024-05-09T05:28:12.084Z,2.20
2024-05-09T05:30:41.117Z,1.80
2024-05-09T05:33:13.675Z,1.90
2024-05-09T05:35:42.019Z,2.30
2024-05-09T05:38:10.869Z,2.20
2024-05-09T05:40:39.875Z,2.40
2024-05-09T05:43:10.375Z,2.30
2024-05-09T05:45:39.018Z,2.60
2024-05-09T05:48:07.939Z,2.50
2024-05-09T05:50:37.859Z,2.10
2024-05-09T05:53:08.095Z,2.20
2024-05-09T05:55:37.249Z,2.10
2024-05-09T05:58:04.944Z,2.20
2024-05-09T06:00:38.777Z,1.90
2024-05-09T06:03:09.613Z,1.90
2024-05-09T06:05:45.859Z,2.20
2024-05-09T06:08:14.032Z,1.90
2024-05-09T06:10:42.488Z,2.30
2024-05-09T06:13:11.230Z,3.20
2024-05-09T06:15:40.086Z,2.30
2024-05-09T06:18:09.281Z,1.80
2024-05-09T06:20:39.496Z,1.90
2024-05-09T06:23:08.279Z,1.60
2024-05-09T06:25:36.342Z,2.20
2024-05-09T06:28:04.420Z,1.90
2024-05-09T06:30:38.627Z,1.90
2024-05-09T06:33:11.269Z,2.20
2024-05-09T06:35:40.988Z,2.00
2024-05-09T06:38:09.357Z,1.90
2024-05-09T06:40:42.365Z,1.90
2024-05-09T06:43:17.553Z,2.20
2024-05-09T06:45:48.922Z,2.00
2024-05-09T06:48:19.485Z,1.90
2024-05-09T06:50:47.554Z,1.90
2024-05-09T06:53:16.585Z,2.00
2024-05-09T06:55:44.259Z,3.90
2024-05-09T06:58:13.308Z,2.60
2024-05-09T07:00:42.091Z,3.30
2024-05-09T07:03:12.745Z,2.50
2024-05-09T07:05:42.513Z,2.10
2024-05-09T07:08:10.505Z,2.00
2024-05-09T07:10:38.552Z,1.70
2024-05-09T07:13:10.227Z,1.80
2024-05-09T07:15:38.118Z,1.90
2024-05-09T07:18:13.705Z,1.30
2024-05-09T07:20:42.219Z,1.30
2024-05-09T07:23:10.604Z,1.70
2024-05-09T07:25:39.966Z,1.70
2024-05-09T07:28:13.470Z,1.30
2024-05-09T07:30:41.682Z,1.40
2024-05-09T07:33:09.529Z,1.70
2024-05-09T07:35:37.357Z,1.80
2024-05-09T07:38:05.072Z,1.20
2024-05-09T07:40:36.209Z,1.70
2024-05-09T07:43:06.582Z,1.40
2024-05-09T07:53:37.024Z,1.70
2024-05-09T07:55:57.607Z,1.40
2024-05-09T07:58:28.278Z,1.30
2024-05-09T08:00:55.985Z,1.40
2024-05-09T08:03:24.221Z,1.20
2024-05-09T08:05:52.146Z,1.40
2024-05-09T08:08:20.085Z,1.30
2024-05-09T08:10:47.771Z,1.30
2024-05-09T08:13:15.384Z,1.40
2024-05-09T08:15:43.232Z,1.70
2024-05-09T08:18:11.253Z,1.50
2024-05-09T08:20:40.142Z,1.50
2024-05-09T08:23:07.640Z,1.60
2024-05-09T08:25:35.103Z,1.50
2024-05-09T08:28:04.676Z,1.40
2024-05-09T08:30:36.882Z,1.60
2024-05-09T08:33:07.038Z,2.10
2024-05-09T08:35:35.869Z,1.40
2024-05-09T08:38:05.092Z,1.70
2024-05-09T08:43:11.232Z,1.80
2024-05-09T08:45:43.989Z,1.60
2024-05-09T08:48:15.220Z,1.80
2024-05-09T08:50:45.137Z,2.30
2024-05-09T08:53:14.987Z,1.60
2024-05-09T08:55:44.547Z,2.00
2024-05-09T08:58:15.930Z,1.60
2024-05-09T09:00:45.634Z,1.40
2024-05-09T09:03:19.079Z,1.60
2024-05-09T09:05:59.008Z,1.60
2024-05-09T09:08:26.693Z,1.90
2024-05-09T09:10:58.610Z,1.80
2024-05-09T09:13:27.405Z,1.60
2024-05-09T09:15:58.156Z,1.70
2024-05-09T09:18:27.318Z,1.90
2024-05-09T09:20:56.067Z,2.20
2024-05-09T09:23:23.844Z,2.00
2024-05-09T09:25:51.850Z,1.90
2024-05-09T09:28:23.257Z,2.20
2024-05-09T09:30:51.045Z,1.80
2024-05-09T09:33:19.246Z,1.90
2024-05-09T09:35:46.945Z,2.30
2024-05-09T09:38:21.047Z,1.80
2024-05-09T09:40:50.423Z,1.80
2024-05-09T09:43:22.419Z,1.80
2024-05-09T09:45:53.161Z,1.40
2024-05-09T09:48:22.774Z,1.80
2024-05-09T09:50:52.251Z,1.90
2024-05-09T09:53:20.519Z,1.60
2024-05-09T09:55:48.144Z,1.70
2024-05-09T09:58:19.060Z,1.20
2024-05-09T10:00:46.952Z,1.50
2024-05-09T10:03:14.677Z,1.50
2024-05-09T10:05:46.241Z,1.50
2024-05-09T10:08:17.495Z,1.70
2024-05-09T10:10:49.855Z,1.50
2024-05-09T10:13:19.747Z,1.40
2024-05-09T10:15:51.718Z,2.80
2024-05-09T10:18:25.056Z,1.80
2024-05-09T10:20:55.786Z,1.30
2024-05-09T10:26:04.369Z,1.70
2024-05-09T10:28:33.841Z,2.20
2024-05-09T10:31:15.337Z,1.50
2024-05-09T10:33:51.588Z,1.40
2024-05-09T10:36:21.158Z,2.30
2024-05-09T10:38:50.072Z,1.60
2024-05-09T10:43:46.378Z,4.00
2024-05-09T10:46:18.616Z,1.90
2024-05-09T10:48:47.054Z,1.60
2024-05-09T10:51:15.140Z,1.70
2024-05-09T10:53:46.870Z,1.80
2024-05-09T10:56:14.737Z,2.10
2024-05-09T10:58:42.388Z,1.80
2024-05-09T11:01:12.969Z,1.60
2024-05-09T11:03:41.006Z,1.80
2024-05-09T11:06:10.506Z,1.60
2024-05-09T11:08:38.981Z,1.60
2024-05-09T11:11:08.511Z,1.40
2024-05-09T11:13:40.427Z,1.30
2024-05-09T11:16:20.619Z,1.70
2024-05-09T11:18:56.589Z,1.60
2024-05-09T11:21:24.808Z,1.60
2024-05-09T11:23:52.529Z,1.70
2024-05-09T11:26:21.794Z,1.60
2024-05-09T11:28:50.138Z,1.80
2024-05-09T11:31:18.039Z,1.50
2024-05-09T11:33:46.405Z,1.50
2024-05-09T11:36:14.656Z,1.80
2024-05-09T11:38:42.437Z,2.10
2024-05-09T11:41:17.015Z,1.30
2024-05-09T11:43:44.644Z,1.50
2024-05-09T11:46:12.268Z,1.60
2024-05-09T11:48:39.949Z,1.80
2024-05-09T11:51:07.732Z,1.40
2024-05-09T11:53:35.156Z,2.00
2024-05-09T11:56:02.902Z,1.80
2024-05-09T11:58:34.204Z,1.50
2024-05-09T12:01:01.910Z,1.30
2024-05-09T12:03:29.604Z,1.60
2024-05-09T12:05:57.469Z,1.70
2024-05-09T12:08:26.847Z,1.50
2024-05-09T12:10:54.614Z,2.30
2024-05-09T12:13:22.289Z,1.50
2024-05-09T12:15:49.928Z,1.40
2024-05-09T12:18:17.447Z,1.50
2024-05-09T12:20:44.926Z,1.50
2024-05-09T12:23:12.467Z,1.40
2024-05-09T12:25:40.312Z,1.50
2024-05-09T12:28:08.280Z,1.70
2024-05-09T12:30:41.438Z,2.20
2024-05-09T12:33:12.470Z,1.20
2024-05-09T12:35:44.034Z,1.80
2024-05-09T12:38:14.660Z,1.40
2024-05-09T12:40:42.623Z,1.50
2024-05-09T12:43:11.368Z,1.80
2024-05-09T12:48:11.342Z,1.30
2024-05-09T12:50:40.331Z,2.80
2024-05-09T12:53:07.968Z,1.00
2024-05-09T12:55:44.108Z,1.20
2024-05-09T12:58:17.808Z,1.40
2024-05-09T13:00:46.097Z,1.20
2024-05-09T13:03:14.256Z,1.50
2024-05-09T13:05:44.285Z,4.90
2024-05-09T13:08:12.887Z,1.50
2024-05-09T13:10:40.585Z,1.50
2024-05-09T13:13:11.706Z,1.30
2024-05-09T13:15:39.486Z,1.40
2024-05-09T13:18:07.650Z,1.20
2024-05-09T13:20:36.732Z,1.30
2024-05-09T13:23:06.351Z,1.40
2024-05-09T13:25:37.143Z,1.70
2024-05-09T13:28:06.298Z,1.50
2024-05-09T13:30:39.553Z,1.50
2024-05-09T13:33:11.675Z,1.60
2024-05-09T13:35:47.428Z,1.40
2024-05-09T13:38:19.676Z,1.50
2024-05-09T13:40:48.307Z,1.30
2024-05-09T13:43:16.192Z,1.10
2024-05-09T13:45:43.978Z,1.50
2024-05-09T13:48:11.833Z,1.50
2024-05-09T13:50:39.750Z,1.50
2024-05-09T13:53:08.362Z,1.40
2024-05-09T13:55:40.494Z,1.20
2024-05-09T13:58:09.443Z,1.40
2024-05-09T14:03:18.665Z,1.50
2024-05-09T14:05:49.335Z,1.30
2024-05-09T14:08:19.274Z,1.10
2024-05-09T14:10:47.522Z,1.60
2024-05-09T14:13:15.731Z,1.30
2024-05-09T14:15:43.524Z,1.30
2024-05-09T14:18:13.579Z,1.10
2024-05-09T14:20:42.762Z,1.20
2024-05-09T14:23:10.790Z,1.00
2024-05-09T14:25:42.053Z,1.40
2024-05-09T14:28:12.728Z,1.40
2024-05-09T14:30:41.923Z,1.50
2024-05-09T14:33:10.962Z,2.40
2024-05-09T14:35:39.111Z,2.00
2024-05-09T14:38:07.951Z,1.50
2024-05-09T14:43:12.717Z,1.80
2024-05-09T14:45:41.357Z,1.10
2024-05-09T14:48:09.945Z,1.20
2024-05-09T14:50:39.628Z,1.30
2024-05-09T14:53:10.399Z,1.50
2024-05-09T14:55:40.161Z,1.30
2024-05-09T14:58:10.125Z,1.30
2024-05-09T15:00:46.287Z,1.00
2024-05-09T15:03:18.737Z,1.60
2024-05-09T15:05:46.999Z,1.30
2024-05-09T15:08:16.536Z,1.40
2024-05-09T15:10:44.221Z,1.40
2024-05-09T15:13:13.465Z,1.30
2024-05-09T15:15:43.238Z,1.20
2024-05-09T15:18:11.093Z,1.30
2024-05-09T15:20:40.258Z,1.10
2024-05-09T15:23:08.007Z,1.50
2024-05-09T15:25:36.765Z,1.10
2024-05-09T15:30:35.188Z,1.20
2024-05-09T15:33:03.912Z,1.30
2024-05-09T15:35:33.170Z,1.50
2024-05-09T15:38:02.627Z,1.10
2024-05-09T15:40:37.731Z,1.20
2024-05-09T15:43:10.043Z,1.40
2024-05-09T15:45:40.845Z,1.40
2024-05-09T15:48:09.453Z,1.50
2024-05-09T15:50:40.699Z,1.20
2024-05-09T15:53:12.033Z,1.30
2024-05-09T15:55:41.601Z,1.40
2024-05-09T15:58:10.076Z,1.40
2024-05-09T16:00:41.525Z,1.20
2024-05-09T16:03:12.402Z,1.50
2024-05-09T16:05:45.388Z,1.80
2024-05-09T16:08:14.520Z,2.60
2024-05-09T16:10:45.754Z,1.40
2024-05-09T16:13:15.291Z,1.50
2024-05-09T16:15:43.658Z,1.50
2024-05-09T16:18:11.923Z,1.20
2024-05-09T16:20:41.732Z,1.70
2024-05-09T16:23:11.146Z,1.80
2024-05-09T16:25:39.438Z,1.30
2024-05-09T16:28:10.090Z,1.50
2024-05-09T16:30:39.837Z,1.50
2024-05-09T16:33:08.707Z,1.40
2024-05-09T16:38:08.643Z,1.20
2024-05-09T16:40:40.076Z,1.60
2024-05-09T16:43:10.773Z,1.50
2024-05-09T16:45:40.688Z,1.30
2024-05-09T16:48:08.950Z,1.70
2024-05-09T16:50:37.432Z,1.60
2024-05-09T16:53:06.279Z,1.20
2024-05-09T16:55:35.838Z,1.50
2024-05-09T16:58:05.044Z,2.20
2024-05-09T17:00:40.368Z,2.60
2024-05-09T17:03:14.298Z,2.10
2024-05-09T17:05:45.193Z,1.40
2024-05-09T17:08:14.393Z,1.40
2024-05-09T17:13:09.928Z,2.00
2024-05-09T17:15:37.910Z,2.20
2024-05-09T17:18:07.246Z,1.60
2024-05-09T17:20:37.327Z,1.90
2024-05-09T17:23:15.155Z,1.60
2024-05-09T17:25:43.236Z,1.50
2024-05-09T17:28:11.494Z,1.40
2024-05-09T17:30:41.649Z,1.50
2024-05-09T17:33:11.642Z,1.40
2024-05-09T17:35:40.708Z,2.20
2024-05-09T17:38:08.567Z,1.60
2024-05-09T17:40:38.115Z,2.00
2024-05-09T17:43:09.412Z,1.70
2024-05-09T17:45:40.491Z,2.10
2024-05-09T17:48:09.521Z,2.40
2024-05-09T17:50:38.074Z,2.20
2024-05-09T17:53:06.646Z,2.20
2024-05-09T17:55:34.808Z,2.30
2024-05-09T17:58:03.884Z,1.80
2024-05-09T18:00:38.369Z,2.00
2024-05-09T18:03:13.341Z,1.60
2024-05-09T18:05:44.422Z,2.00
2024-05-09T18:08:13.082Z,2.60
2024-05-09T18:10:41.473Z,2.20
2024-05-09T18:13:10.923Z,1.70
2024-05-09T18:15:39.197Z,2.50
2024-05-09T18:18:07.869Z,1.70
2024-05-09T18:20:42.126Z,1.90
2024-05-09T18:23:17.846Z,1.90
2024-05-09T18:25:48.006Z,2.20
2024-05-09T18:28:16.990Z,2.00
2024-05-09T18:30:45.205Z,1.70
2024-05-09T18:33:13.112Z,3.10
2024-05-09T18:35:42.876Z,2.20
2024-05-09T18:38:10.660Z,2.10
2024-05-09T18:40:39.474Z,2.30
2024-05-09T18:43:09.184Z,2.00
2024-05-09T18:45:38.210Z,2.50
2024-05-09T18:48:08.387Z,2.40
2024-05-09T18:50:39.796Z,2.60
2024-05-09T18:53:11.741Z,2.30
2024-05-09T18:55:41.586Z,2.60
2024-05-09T18:58:09.282Z,2.60
2024-05-09T19:00:39.656Z,2.80
2024-05-09T19:03:12.392Z,3.30
2024-05-09T19:05:43.556Z,2.30
2024-05-09T19:08:12.505Z,3.50
2024-05-09T19:10:40.493Z,3.40
2024-05-09T19:13:12.039Z,2.80
2024-05-09T19:15:42.783Z,2.60
2024-05-09T19:18:12.578Z,3.20
2024-05-09T19:20:40.779Z,3.80
2024-05-09T19:23:08.328Z,4.60
2024-05-09T19:25:36.409Z,3.50
2024-05-09T19:28:05.578Z,6.60
2024-05-09T19:30:39.102Z,4.00
2024-05-09T19:33:12.850Z,3.20
2024-05-09T19:35:42.821Z,2.80
2024-05-09T19:38:11.611Z,2.90
2024-05-09T19:40:39.296Z,2.90
2024-05-09T19:43:07.040Z,3.00
2024-05-09T19:45:35.747Z,2.90
2024-05-09T19:48:05.418Z,2.90
2024-05-09T19:50:41.690Z,3.50
2024-05-09T19:53:14.059Z,3.20
2024-05-09T19:55:42.286Z,3.30
2024-05-09T19:58:10.350Z,3.10
2024-05-09T20:00:40.638Z,3.60
2024-05-09T20:03:11.688Z,3.50
2024-05-09T20:05:40.062Z,4.00
2024-05-09T20:08:07.866Z,3.00
2024-05-09T20:10:36.552Z,3.20
2024-05-09T20:13:06.684Z,2.70
2024-05-09T20:15:36.439Z,3.20
2024-05-09T20:18:04.800Z,3.10
2024-05-09T20:20:38.927Z,3.60
2024-05-09T20:23:10.607Z,3.00
2024-05-09T20:25:38.308Z,2.80
2024-05-09T20:28:07.751Z,3.10
2024-05-09T20:30:36.277Z,3.50
2024-05-09T20:33:09.474Z,3.00
2024-05-09T20:35:37.794Z,3.10
2024-05-09T20:38:05.455Z,3.80
2024-05-09T20:40:37.075Z,3.10
2024-05-09T20:43:10.323Z,3.10
2024-05-09T20:45:39.847Z,2.80
2024-05-09T20:48:08.751Z,3.20
2024-05-09T20:50:40.590Z,2.90
2024-05-09T20:53:11.861Z,2.90
2024-05-09T20:55:40.203Z,3.10
2024-05-09T20:58:08.308Z,4.80
2024-05-09T21:00:40.316Z,12.20
2024-05-09T21:03:13.146Z,4.20
2024-05-09T21:05:41.933Z,3.30
2024-05-09T21:08:09.613Z,2.90
2024-05-09T21:10:37.661Z,3.00
2024-05-09T21:13:06.527Z,2.90
2024-05-09T21:15:34.986Z,3.50
2024-05-09T21:18:03.590Z,3.20
2024-05-09T21:20:33.348Z,3.20
2024-05-09T21:23:01.912Z,3.00
2024-05-09T21:25:30.714Z,3.00
2024-05-09T21:27:58.540Z,2.80
2024-05-09T21:30:37.032Z,2.80
2024-05-09T21:33:10.491Z,2.90
2024-05-09T21:35:40.698Z,3.10
2024-05-09T21:38:08.421Z,3.30
2024-05-09T21:40:37.873Z,2.90
2024-05-09T21:43:07.639Z,3.10
2024-05-09T21:45:36.244Z,3.00
2024-05-09T21:48:05.183Z,3.40
2024-05-09T21:50:39.588Z,3.00
2024-05-09T21:53:13.284Z,2.90
2024-05-09T21:55:46.835Z,3.40
2024-05-09T21:58:14.864Z,2.90
2024-05-09T22:00:45.525Z,2.80
2024-05-09T22:03:13.661Z,3.40
2024-05-09T22:05:43.293Z,3.20
2024-05-09T22:10:38.672Z,3.30
2024-05-09T22:13:07.396Z,2.80
2024-05-09T22:15:38.191Z,3.10
2024-05-09T22:18:07.457Z,2.70
2024-05-09T22:20:38.448Z,3.10
2024-05-09T22:23:08.278Z,2.70
2024-05-09T22:25:36.912Z,3.10
2024-05-09T22:28:05.556Z,3.00
2024-05-09T22:30:37.316Z,3.20
2024-05-09T22:33:08.450Z,2.80
2024-05-09T22:35:37.204Z,3.00
2024-05-09T22:38:05.001Z,3.00
2024-05-09T22:40:42.253Z,3.50
2024-05-09T22:43:23.990Z,3.30
2024-05-09T22:45:54.570Z,3.40
2024-05-09T22:48:23.550Z,3.50
2024-05-09T22:50:51.707Z,3.20
2024-05-09T22:53:21.842Z,3.10
2024-05-09T22:55:49.372Z,3.90
2024-05-09T22:58:17.225Z,3.20
2024-05-09T23:00:44.808Z,3.50
2024-05-09T23:03:15.535Z,3.30
2024-05-09T23:05:43.446Z,3.20
2024-05-09T23:08:10.970Z,3.30
2024-05-09T23:10:38.652Z,3.60
2024-05-09T23:13:07.785Z,3.60
2024-05-09T23:15:38.188Z,3.60
2024-05-09T23:18:06.936Z,3.70
2024-05-09T23:20:38.504Z,3.80
2024-05-09T23:23:09.785Z,3.90
2024-05-09T23:25:38.709Z,3.50
2024-05-09T23:28:06.952Z,3.40
2024-05-09T23:30:38.649Z,3.40
2024-05-09T23:33:12.955Z,3.40
2024-05-09T23:35:43.097Z,3.30
2024-05-09T23:38:10.675Z,3.60
2024-05-09T23:40:40.728Z,3.60
2024-05-09T23:43:10.483Z,3.10
2024-05-09T23:45:38.698Z,4.00
2024-05-09T23:48:07.348Z,3.30
2024-05-09T23:50:37.795Z,3.50
2024-05-09T23:53:08.782Z,3.50
2024-05-09T23:55:37.528Z,3.40
2024-05-09T23:58:06.230Z,3.80
